sensor_id;sensor_type;location;lat;lon;timestamp;temperature;humidity
2174;DHT22;1093;51.424;11.764;2023-10-31T00:01:30;12.00;1.40
2174;DHT22;1093;51.424;11.764;2023-10-31T00:03:57;12.00;1.40
2174;DHT22;1093;51.424;11.764;2023-10-31T00:06:24;12.00;1.40
2174;DHT22;1093;51.424;11.764;2023-10-31T00:08:51;12.00;1.40
2174;DHT22;1093;51.424;11.764;2023-10-31T00:11:18;12.00;1.40
2174;DHT22;1093;51.424;11.764;2023-10-31T00:13:44;12.00;1.40
2174;DHT22;1093;51.424;11.764;2023-10-31T00:16:12;12.00;1.40
2174;DHT22;1093;51.424;11.764;2023-10-31T00:18:40;12.00;1.40
2174;DHT22;1093;51.424;11.764;2023-10-31T00:21:07;12.00;1.40
2174;DHT22;1093;51.424;11.764;2023-10-31T00:23:34;12.00;1.40
2174;DHT22;1093;51.424;11.764;2023-10-31T00:26:08;12.00;1.40
2174;DHT22;1093;51.424;11.764;2023-10-31T00:28:36;12.00;1.40
2174;DHT22;1093;51.424;11.764;2023-10-31T00:31:03;12.00;1.40
2174;DHT22;1093;51.424;11.764;2023-10-31T00:33:30;12.00;1.40
2174;DHT22;1093;51.424;11.764;2023-10-31T00:35:59;12.00;1.40
2174;DHT22;1093;51.424;11.764;2023-10-31T00:38:26;12.10;1.40
2174;DHT22;1093;51.424;11.764;2023-10-31T00:40:52;12.10;1.40
2174;DHT22;1093;51.424;11.764;2023-10-31T00:43:19;12.10;1.40
2174;DHT22;1093;51.424;11.764;2023-10-31T00:45:46;12.10;1.40
2174;DHT22;1093;51.424;11.764;2023-10-31T00:48:13;12.10;1.40
2174;DHT22;1093;51.424;11.764;2023-10-31T00:50:40;12.10;1.40
2174;DHT22;1093;51.424;11.764;2023-10-31T00:53:08;12.10;1.40
2174;DHT22;1093;51.424;11.764;2023-10-31T00:55:35;12.10;1.40
2174;DHT22;1093;51.424;11.764;2023-10-31T00:58:02;12.10;1.40
2174;DHT22;1093;51.424;11.764;2023-10-31T01:00:28;12.10;1.40
2174;DHT22;1093;51.424;11.764;2023-10-31T01:02:55;12.10;1.40
2174;DHT22;1093;51.424;11.764;2023-10-31T01:05:22;12.10;1.40
2174;DHT22;1093;51.424;11.764;2023-10-31T01:07:49;12.10;1.40
2174;DHT22;1093;51.424;11.764;2023-10-31T01:10:17;12.00;1.40
2174;DHT22;1093;51.424;11.764;2023-10-31T01:12:44;12.10;1.40
2174;DHT22;1093;51.424;11.764;2023-10-31T01:15:11;12.10;1.40
2174;DHT22;1093;51.424;11.764;2023-10-31T01:17:38;12.10;1.40
2174;DHT22;1093;51.424;11.764;2023-10-31T01:20:06;12.10;1.40
2174;DHT22;1093;51.424;11.764;2023-10-31T01:22:33;12.10;1.40
2174;DHT22;1093;51.424;11.764;2023-10-31T01:25:00;12.10;1.40
2174;DHT22;1093;51.424;11.764;2023-10-31T01:27:29;12.10;1.40
2174;DHT22;1093;51.424;11.764;2023-10-31T01:29:56;12.10;1.40
2174;DHT22;1093;51.424;11.764;2023-10-31T01:32:22;12.20;1.40
2174;DHT22;1093;51.424;11.764;2023-10-31T01:34:49;12.10;1.40
2174;DHT22;1093;51.424;11.764;2023-10-31T01:37:16;12.10;1.40
2174;DHT22;1093;51.424;11.764;2023-10-31T01:39:44;12.10;1.40
2174;DHT22;1093;51.424;11.764;2023-10-31T01:42:13;12.20;1.40
2174;DHT22;1093;51.424;11.764;2023-10-31T01:44:42;12.10;1.40
2174;DHT22;1093;51.424;11.764;2023-10-31T01:47:09;12.20;1.40
2174;DHT22;1093;51.424;11.764;2023-10-31T01:49:36;12.20;1.40
2174;DHT22;1093;51.424;11.764;2023-10-31T01:52:04;12.20;1.40
2174;DHT22;1093;51.424;11.764;2023-10-31T01:54:32;12.20;1.40
2174;DHT22;1093;51.424;11.764;2023-10-31T01:56:59;12.20;1.40
2174;DHT22;1093;51.424;11.764;2023-10-31T01:59:27;12.20;1.40
2174;DHT22;1093;51.424;11.764;2023-10-31T02:01:55;12.20;1.40
2174;DHT22;1093;51.424;11.764;2023-10-31T02:04:23;12.20;1.40
2174;DHT22;1093;51.424;11.764;2023-10-31T02:06:50;12.30;1.40
2174;DHT22;1093;51.424;11.764;2023-10-31T02:09:17;12.20;1.40
2174;DHT22;1093;51.424;11.764;2023-10-31T02:11:44;12.30;1.40
2174;DHT22;1093;51.424;11.764;2023-10-31T02:14:11;12.30;1.40
2174;DHT22;1093;51.424;11.764;2023-10-31T02:16:37;12.30;1.40
2174;DHT22;1093;51.424;11.764;2023-10-31T02:19:06;12.20;1.40
2174;DHT22;1093;51.424;11.764;2023-10-31T02:21:33;12.20;1.40
2174;DHT22;1093;51.424;11.764;2023-10-31T02:24:03;12.30;1.40
2174;DHT22;1093;51.424;11.764;2023-10-31T02:26:29;12.30;1.40
2174;DHT22;1093;51.424;11.764;2023-10-31T02:28:58;12.20;1.40
2174;DHT22;1093;51.424;11.764;2023-10-31T02:31:25;12.20;1.40
2174;DHT22;1093;51.424;11.764;2023-10-31T02:33:52;12.20;1.40
2174;DHT22;1093;51.424;11.764;2023-10-31T02:36:19;12.30;1.40
2174;DHT22;1093;51.424;11.764;2023-10-31T02:38:46;12.30;1.40
2174;DHT22;1093;51.424;11.764;2023-10-31T02:41:13;12.30;1.40
2174;DHT22;1093;51.424;11.764;2023-10-31T02:43:41;12.30;1.40
2174;DHT22;1093;51.424;11.764;2023-10-31T02:46:08;12.30;1.40
2174;DHT22;1093;51.424;11.764;2023-10-31T02:48:37;12.40;1.40
2174;DHT22;1093;51.424;11.764;2023-10-31T02:51:05;12.40;1.40
2174;DHT22;1093;51.424;11.764;2023-10-31T02:53:32;12.40;1.40
2174;DHT22;1093;51.424;11.764;2023-10-31T02:55:59;12.40;1.40
2174;DHT22;1093;51.424;11.764;2023-10-31T02:58:28;12.40;1.40
2174;DHT22;1093;51.424;11.764;2023-10-31T03:00:54;12.40;1.40
2174;DHT22;1093;51.424;11.764;2023-10-31T03:03:21;12.40;1.40
2174;DHT22;1093;51.424;11.764;2023-10-31T03:05:48;12.40;1.40
2174;DHT22;1093;51.424;11.764;2023-10-31T03:08:15;12.30;1.40
2174;DHT22;1093;51.424;11.764;2023-10-31T03:10:47;12.40;1.40
2174;DHT22;1093;51.424;11.764;2023-10-31T03:13:15;12.40;1.40
2174;DHT22;1093;51.424;11.764;2023-10-31T03:15:44;12.40;1.40
2174;DHT22;1093;51.424;11.764;2023-10-31T03:18:11;12.50;1.40
2174;DHT22;1093;51.424;11.764;2023-10-31T03:20:40;12.50;1.40
2174;DHT22;1093;51.424;11.764;2023-10-31T03:23:06;12.60;1.40
2174;DHT22;1093;51.424;11.764;2023-10-31T03:25:33;12.60;1.40
2174;DHT22;1093;51.424;11.764;2023-10-31T03:28:00;12.70;1.40
2174;DHT22;1093;51.424;11.764;2023-10-31T03:30:27;12.60;1.40
2174;DHT22;1093;51.424;11.764;2023-10-31T03:32:55;12.70;1.40
2174;DHT22;1093;51.424;11.764;2023-10-31T03:35:22;12.70;1.40
2174;DHT22;1093;51.424;11.764;2023-10-31T03:37:49;12.70;1.40
2174;DHT22;1093;51.424;11.764;2023-10-31T03:40:16;12.70;1.40
2174;DHT22;1093;51.424;11.764;2023-10-31T03:42:42;12.80;1.40
2174;DHT22;1093;51.424;11.764;2023-10-31T03:45:09;12.80;1.40
2174;DHT22;1093;51.424;11.764;2023-10-31T03:47:36;12.80;1.40
2174;DHT22;1093;51.424;11.764;2023-10-31T03:50:05;12.90;1.40
2174;DHT22;1093;51.424;11.764;2023-10-31T03:52:32;12.80;1.40
2174;DHT22;1093;51.424;11.764;2023-10-31T03:54:59;12.90;1.40
2174;DHT22;1093;51.424;11.764;2023-10-31T03:57:26;12.90;1.40
2174;DHT22;1093;51.424;11.764;2023-10-31T03:59:53;12.90;1.40
2174;DHT22;1093;51.424;11.764;2023-10-31T04:02:20;12.90;1.40
2174;DHT22;1093;51.424;11.764;2023-10-31T04:04:47;12.90;1.40
2174;DHT22;1093;51.424;11.764;2023-10-31T04:07:15;13.00;1.40
2174;DHT22;1093;51.424;11.764;2023-10-31T04:09:42;13.00;1.40
2174;DHT22;1093;51.424;11.764;2023-10-31T04:12:09;12.90;1.40
2174;DHT22;1093;51.424;11.764;2023-10-31T04:14:38;12.90;1.40
2174;DHT22;1093;51.424;11.764;2023-10-31T04:17:05;12.90;1.40
2174;DHT22;1093;51.424;11.764;2023-10-31T04:19:31;12.90;1.40
2174;DHT22;1093;51.424;11.764;2023-10-31T04:21:58;12.90;1.40
2174;DHT22;1093;51.424;11.764;2023-10-31T04:24:26;13.00;1.40
2174;DHT22;1093;51.424;11.764;2023-10-31T04:26:53;13.00;1.40
2174;DHT22;1093;51.424;11.764;2023-10-31T04:29:20;13.00;1.40
2174;DHT22;1093;51.424;11.764;2023-10-31T04:31:47;13.00;1.40
2174;DHT22;1093;51.424;11.764;2023-10-31T04:34:14;13.00;1.40
2174;DHT22;1093;51.424;11.764;2023-10-31T04:36:41;13.00;1.40
2174;DHT22;1093;51.424;11.764;2023-10-31T04:39:08;13.00;1.40
2174;DHT22;1093;51.424;11.764;2023-10-31T04:41:36;13.00;1.40
2174;DHT22;1093;51.424;11.764;2023-10-31T04:44:03;13.10;1.40
2174;DHT22;1093;51.424;11.764;2023-10-31T04:46:30;13.00;1.40
2174;DHT22;1093;51.424;11.764;2023-10-31T04:48:57;13.00;1.40
2174;DHT22;1093;51.424;11.764;2023-10-31T04:51:24;13.00;1.40
2174;DHT22;1093;51.424;11.764;2023-10-31T04:53:53;13.00;1.40
2174;DHT22;1093;51.424;11.764;2023-10-31T04:56:20;13.00;1.40
2174;DHT22;1093;51.424;11.764;2023-10-31T04:58:48;13.10;1.40
2174;DHT22;1093;51.424;11.764;2023-10-31T05:01:16;13.10;1.40
2174;DHT22;1093;51.424;11.764;2023-10-31T05:03:43;13.10;1.40
2174;DHT22;1093;51.424;11.764;2023-10-31T05:06:09;13.10;1.40
2174;DHT22;1093;51.424;11.764;2023-10-31T05:08:36;13.10;1.40
2174;DHT22;1093;51.424;11.764;2023-10-31T05:11:03;13.00;1.40
2174;DHT22;1093;51.424;11.764;2023-10-31T05:13:30;13.10;1.40
2174;DHT22;1093;51.424;11.764;2023-10-31T05:15:59;13.10;1.40
2174;DHT22;1093;51.424;11.764;2023-10-31T05:18:26;13.00;1.40
2174;DHT22;1093;51.424;11.764;2023-10-31T05:20:52;13.00;1.40
2174;DHT22;1093;51.424;11.764;2023-10-31T05:23:19;13.00;1.40
2174;DHT22;1093;51.424;11.764;2023-10-31T05:25:46;13.00;1.40
2174;DHT22;1093;51.424;11.764;2023-10-31T05:28:13;12.90;1.40
2174;DHT22;1093;51.424;11.764;2023-10-31T05:30:40;12.90;1.40
2174;DHT22;1093;51.424;11.764;2023-10-31T05:33:08;12.90;1.40
2174;DHT22;1093;51.424;11.764;2023-10-31T05:35:35;12.90;1.40
2174;DHT22;1093;51.424;11.764;2023-10-31T05:38:02;12.90;1.40
2174;DHT22;1093;51.424;11.764;2023-10-31T05:40:29;12.80;1.40
2174;DHT22;1093;51.424;11.764;2023-10-31T05:42:57;12.80;1.40
2174;DHT22;1093;51.424;11.764;2023-10-31T05:45:24;12.70;1.40
2174;DHT22;1093;51.424;11.764;2023-10-31T05:47:51;12.70;1.40
2174;DHT22;1093;51.424;11.764;2023-10-31T05:50:19;12.70;1.40
2174;DHT22;1093;51.424;11.764;2023-10-31T05:52:46;12.60;1.40
2174;DHT22;1093;51.424;11.764;2023-10-31T05:55:13;12.60;1.40
2174;DHT22;1093;51.424;11.764;2023-10-31T05:57:41;12.60;1.40
2174;DHT22;1093;51.424;11.764;2023-10-31T06:00:09;12.60;1.40
2174;DHT22;1093;51.424;11.764;2023-10-31T06:02:36;12.60;1.40
2174;DHT22;1093;51.424;11.764;2023-10-31T06:05:03;12.60;1.40
2174;DHT22;1093;51.424;11.764;2023-10-31T06:07:32;12.50;1.40
2174;DHT22;1093;51.424;11.764;2023-10-31T06:09:59;12.50;1.40
2174;DHT22;1093;51.424;11.764;2023-10-31T06:12:25;12.50;1.40
2174;DHT22;1093;51.424;11.764;2023-10-31T06:14:52;12.50;1.40
2174;DHT22;1093;51.424;11.764;2023-10-31T06:17:19;12.50;1.40
2174;DHT22;1093;51.424;11.764;2023-10-31T06:19:48;12.40;1.40
2174;DHT22;1093;51.424;11.764;2023-10-31T06:22:15;12.40;1.40
2174;DHT22;1093;51.424;11.764;2023-10-31T06:24:43;12.40;1.40
2174;DHT22;1093;51.424;11.764;2023-10-31T06:27:10;12.40;1.40
2174;DHT22;1093;51.424;11.764;2023-10-31T06:29:37;12.30;1.40
2174;DHT22;1093;51.424;11.764;2023-10-31T06:32:05;12.30;1.40
2174;DHT22;1093;51.424;11.764;2023-10-31T06:34:32;12.30;1.40
2174;DHT22;1093;51.424;11.764;2023-10-31T06:36:59;12.30;1.40
2174;DHT22;1093;51.424;11.764;2023-10-31T06:39:26;12.30;1.40
2174;DHT22;1093;51.424;11.764;2023-10-31T06:41:55;12.20;1.40
2174;DHT22;1093;51.424;11.764;2023-10-31T06:44:22;12.30;1.40
2174;DHT22;1093;51.424;11.764;2023-10-31T06:46:49;12.30;1.40
2174;DHT22;1093;51.424;11.764;2023-10-31T06:49:16;12.30;1.40
2174;DHT22;1093;51.424;11.764;2023-10-31T06:51:43;12.30;1.40
2174;DHT22;1093;51.424;11.764;2023-10-31T06:54:10;12.40;1.40
2174;DHT22;1093;51.424;11.764;2023-10-31T06:56:36;12.40;1.40
2174;DHT22;1093;51.424;11.764;2023-10-31T06:59:05;12.40;1.40
2174;DHT22;1093;51.424;11.764;2023-10-31T07:01:32;12.50;1.40
2174;DHT22;1093;51.424;11.764;2023-10-31T07:03:59;12.50;1.40
2174;DHT22;1093;51.424;11.764;2023-10-31T07:06:25;12.50;1.40
2174;DHT22;1093;51.424;11.764;2023-10-31T07:08:53;12.50;1.40
2174;DHT22;1093;51.424;11.764;2023-10-31T07:11:20;12.50;1.40
2174;DHT22;1093;51.424;11.764;2023-10-31T07:13:47;12.60;1.40
2174;DHT22;1093;51.424;11.764;2023-10-31T07:16:15;12.60;1.40
2174;DHT22;1093;51.424;11.764;2023-10-31T07:18:42;12.60;1.40
2174;DHT22;1093;51.424;11.764;2023-10-31T07:21:09;12.60;1.40
2174;DHT22;1093;51.424;11.764;2023-10-31T07:23:36;12.60;1.40
2174;DHT22;1093;51.424;11.764;2023-10-31T07:26:04;12.50;1.40
2174;DHT22;1093;51.424;11.764;2023-10-31T07:28:31;12.50;1.40
2174;DHT22;1093;51.424;11.764;2023-10-31T07:30:58;12.60;1.40
2174;DHT22;1093;51.424;11.764;2023-10-31T07:33:27;12.60;1.40
2174;DHT22;1093;51.424;11.764;2023-10-31T07:35:54;12.50;1.40
2174;DHT22;1093;51.424;11.764;2023-10-31T07:38:21;12.60;1.40
2174;DHT22;1093;51.424;11.764;2023-10-31T07:40:48;12.60;1.40
2174;DHT22;1093;51.424;11.764;2023-10-31T07:43:16;12.60;1.40
2174;DHT22;1093;51.424;11.764;2023-10-31T07:45:43;12.60;1.40
2174;DHT22;1093;51.424;11.764;2023-10-31T07:48:10;12.60;1.40
2174;DHT22;1093;51.424;11.764;2023-10-31T07:50:38;12.60;1.40
2174;DHT22;1093;51.424;11.764;2023-10-31T07:53:06;12.60;1.40
2174;DHT22;1093;51.424;11.764;2023-10-31T07:55:33;12.60;1.40
2174;DHT22;1093;51.424;11.764;2023-10-31T07:58:00;12.60;1.40
2174;DHT22;1093;51.424;11.764;2023-10-31T08:00:27;12.60;1.40
2174;DHT22;1093;51.424;11.764;2023-10-31T08:02:54;12.60;1.40
2174;DHT22;1093;51.424;11.764;2023-10-31T08:05:21;12.60;1.40
2174;DHT22;1093;51.424;11.764;2023-10-31T08:07:49;12.60;1.40
2174;DHT22;1093;51.424;11.764;2023-10-31T08:10:16;12.60;1.40
2174;DHT22;1093;51.424;11.764;2023-10-31T08:12:43;12.50;1.40
2174;DHT22;1093;51.424;11.764;2023-10-31T08:15:10;12.50;1.40
2174;DHT22;1093;51.424;11.764;2023-10-31T08:17:37;12.60;1.40
2174;DHT22;1093;51.424;11.764;2023-10-31T08:20:04;12.50;1.40
2174;DHT22;1093;51.424;11.764;2023-10-31T08:22:31;12.50;1.40
2174;DHT22;1093;51.424;11.764;2023-10-31T08:25:00;12.50;1.40
2174;DHT22;1093;51.424;11.764;2023-10-31T08:27:26;12.50;1.40
2174;DHT22;1093;51.424;11.764;2023-10-31T08:29:53;12.50;1.40
2174;DHT22;1093;51.424;11.764;2023-10-31T08:32:20;12.50;1.40
2174;DHT22;1093;51.424;11.764;2023-10-31T08:34:50;12.50;1.40
2174;DHT22;1093;51.424;11.764;2023-10-31T08:37:18;12.60;1.40
2174;DHT22;1093;51.424;11.764;2023-10-31T08:39:45;12.60;1.40
2174;DHT22;1093;51.424;11.764;2023-10-31T08:42:13;12.50;1.40
2174;DHT22;1093;51.424;11.764;2023-10-31T08:44:40;12.50;1.40
2174;DHT22;1093;51.424;11.764;2023-10-31T08:47:07;12.50;1.40
2174;DHT22;1093;51.424;11.764;2023-10-31T08:49:34;12.50;1.40
2174;DHT22;1093;51.424;11.764;2023-10-31T08:52:01;12.60;1.40
2174;DHT22;1093;51.424;11.764;2023-10-31T08:54:29;12.60;1.40
2174;DHT22;1093;51.424;11.764;2023-10-31T08:56:56;12.70;1.40
2174;DHT22;1093;51.424;11.764;2023-10-31T08:59:26;12.70;1.40
2174;DHT22;1093;51.424;11.764;2023-10-31T09:01:53;12.90;1.40
2174;DHT22;1093;51.424;11.764;2023-10-31T09:04:20;12.90;1.40
2174;DHT22;1093;51.424;11.764;2023-10-31T09:06:47;12.90;1.40
2174;DHT22;1093;51.424;11.764;2023-10-31T09:09:14;12.90;1.40
2174;DHT22;1093;51.424;11.764;2023-10-31T09:11:41;12.90;1.40
2174;DHT22;1093;51.424;11.764;2023-10-31T09:14:08;12.90;1.40
2174;DHT22;1093;51.424;11.764;2023-10-31T09:16:36;13.00;1.40
2174;DHT22;1093;51.424;11.764;2023-10-31T09:19:03;13.10;1.40
2174;DHT22;1093;51.424;11.764;2023-10-31T09:21:30;13.20;1.40
2174;DHT22;1093;51.424;11.764;2023-10-31T09:23:56;13.30;1.40
2174;DHT22;1093;51.424;11.764;2023-10-31T09:26:25;13.30;1.40
2174;DHT22;1093;51.424;11.764;2023-10-31T09:28:52;13.40;1.40
2174;DHT22;1093;51.424;11.764;2023-10-31T09:31:19;13.50;1.40
2174;DHT22;1093;51.424;11.764;2023-10-31T09:33:47;13.60;1.40
2174;DHT22;1093;51.424;11.764;2023-10-31T09:36:14;13.60;1.40
2174;DHT22;1093;51.424;11.764;2023-10-31T09:38:41;13.80;1.40
2174;DHT22;1093;51.424;11.764;2023-10-31T09:41:08;13.80;1.40
2174;DHT22;1093;51.424;11.764;2023-10-31T09:43:35;13.80;1.40
2174;DHT22;1093;51.424;11.764;2023-10-31T09:46:02;13.90;1.40
2174;DHT22;1093;51.424;11.764;2023-10-31T09:48:30;13.80;1.40
2174;DHT22;1093;51.424;11.764;2023-10-31T09:50:59;13.80;1.40
2174;DHT22;1093;51.424;11.764;2023-10-31T09:53:27;13.80;1.40
2174;DHT22;1093;51.424;11.764;2023-10-31T09:55:55;13.80;1.40
2174;DHT22;1093;51.424;11.764;2023-10-31T09:58:22;13.80;1.40
2174;DHT22;1093;51.424;11.764;2023-10-31T10:00:49;13.80;1.40
2174;DHT22;1093;51.424;11.764;2023-10-31T10:03:16;13.90;1.40
2174;DHT22;1093;51.424;11.764;2023-10-31T10:05:44;13.90;1.40
2174;DHT22;1093;51.424;11.764;2023-10-31T10:08:14;13.80;1.40
2174;DHT22;1093;51.424;11.764;2023-10-31T10:10:41;13.80;1.40
2174;DHT22;1093;51.424;11.764;2023-10-31T10:13:08;13.80;1.40
2174;DHT22;1093;51.424;11.764;2023-10-31T10:15:43;13.80;1.40
2174;DHT22;1093;51.424;11.764;2023-10-31T10:18:10;13.80;1.40
2174;DHT22;1093;51.424;11.764;2023-10-31T10:20:54;13.90;1.40
2174;DHT22;1093;51.424;11.764;2023-10-31T10:23:23;13.90;1.40
2174;DHT22;1093;51.424;11.764;2023-10-31T10:25:50;14.00;1.40
2174;DHT22;1093;51.424;11.764;2023-10-31T10:28:17;14.00;1.40
2174;DHT22;1093;51.424;11.764;2023-10-31T10:30:45;13.90;1.40
2174;DHT22;1093;51.424;11.764;2023-10-31T10:33:15;14.00;1.40
2174;DHT22;1093;51.424;11.764;2023-10-31T10:35:42;13.90;1.40
2174;DHT22;1093;51.424;11.764;2023-10-31T10:38:10;14.00;1.40
2174;DHT22;1093;51.424;11.764;2023-10-31T10:40:41;14.00;1.40
2174;DHT22;1093;51.424;11.764;2023-10-31T10:43:13;14.00;1.40
2174;DHT22;1093;51.424;11.764;2023-10-31T10:45:42;14.00;1.40
2174;DHT22;1093;51.424;11.764;2023-10-31T10:48:13;14.00;1.40
2174;DHT22;1093;51.424;11.764;2023-10-31T10:50:43;14.10;1.40
2174;DHT22;1093;51.424;11.764;2023-10-31T10:53:21;14.00;1.40
2174;DHT22;1093;51.424;11.764;2023-10-31T10:55:55;14.00;1.40
2174;DHT22;1093;51.424;11.764;2023-10-31T10:58:29;14.00;1.40
2174;DHT22;1093;51.424;11.764;2023-10-31T11:00:59;14.00;1.40
2174;DHT22;1093;51.424;11.764;2023-10-31T11:03:29;14.00;1.40
2174;DHT22;1093;51.424;11.764;2023-10-31T11:05:57;14.00;1.40
2174;DHT22;1093;51.424;11.764;2023-10-31T11:08:24;14.10;1.40
2174;DHT22;1093;51.424;11.764;2023-10-31T11:10:53;14.10;1.40
2174;DHT22;1093;51.424;11.764;2023-10-31T11:13:22;14.00;1.40
2174;DHT22;1093;51.424;11.764;2023-10-31T11:15:52;14.00;1.40
2174;DHT22;1093;51.424;11.764;2023-10-31T11:18:20;13.90;1.40
2174;DHT22;1093;51.424;11.764;2023-10-31T11:20:51;13.90;1.40
2174;DHT22;1093;51.424;11.764;2023-10-31T11:23:18;13.90;1.40
2174;DHT22;1093;51.424;11.764;2023-10-31T11:25:49;13.80;1.40
2174;DHT22;1093;51.424;11.764;2023-10-31T11:28:19;13.70;1.40
2174;DHT22;1093;51.424;11.764;2023-10-31T11:30:48;13.70;1.40
2174;DHT22;1093;51.424;11.764;2023-10-31T11:33:19;13.60;1.40
2174;DHT22;1093;51.424;11.764;2023-10-31T11:35:50;13.60;1.40
2174;DHT22;1093;51.424;11.764;2023-10-31T11:38:16;13.60;1.40
2174;DHT22;1093;51.424;11.764;2023-10-31T11:41:01;13.70;1.40
2174;DHT22;1093;51.424;11.764;2023-10-31T11:43:54;13.60;1.40
2174;DHT22;1093;51.424;11.764;2023-10-31T11:46:22;13.60;1.40
2174;DHT22;1093;51.424;11.764;2023-10-31T11:48:51;13.60;1.40
2174;DHT22;1093;51.424;11.764;2023-10-31T11:51:18;13.70;1.40
2174;DHT22;1093;51.424;11.764;2023-10-31T11:53:45;13.70;1.40
2174;DHT22;1093;51.424;11.764;2023-10-31T11:56:13;13.80;1.40
2174;DHT22;1093;51.424;11.764;2023-10-31T11:58:40;13.80;1.40
2174;DHT22;1093;51.424;11.764;2023-10-31T12:01:10;13.80;1.40
2174;DHT22;1093;51.424;11.764;2023-10-31T12:03:37;13.80;1.40
2174;DHT22;1093;51.424;11.764;2023-10-31T12:06:05;13.70;1.40
2174;DHT22;1093;51.424;11.764;2023-10-31T12:08:35;13.70;1.40
2174;DHT22;1093;51.424;11.764;2023-10-31T12:11:06;13.70;1.40
2174;DHT22;1093;51.424;11.764;2023-10-31T12:13:35;13.80;1.40
2174;DHT22;1093;51.424;11.764;2023-10-31T12:16:03;13.80;1.40
2174;DHT22;1093;51.424;11.764;2023-10-31T12:18:31;13.80;1.40
2174;DHT22;1093;51.424;11.764;2023-10-31T12:20:58;13.70;1.40
2174;DHT22;1093;51.424;11.764;2023-10-31T12:23:25;13.80;1.40
2174;DHT22;1093;51.424;11.764;2023-10-31T12:25:53;13.80;1.40
2174;DHT22;1093;51.424;11.764;2023-10-31T12:28:21;13.80;1.40
2174;DHT22;1093;51.424;11.764;2023-10-31T12:30:48;13.80;1.40
2174;DHT22;1093;51.424;11.764;2023-10-31T12:33:15;13.80;1.40
2174;DHT22;1093;51.424;11.764;2023-10-31T12:35:44;13.70;1.40
2174;DHT22;1093;51.424;11.764;2023-10-31T12:38:13;13.70;1.40
2174;DHT22;1093;51.424;11.764;2023-10-31T12:40:40;13.70;1.40
2174;DHT22;1093;51.424;11.764;2023-10-31T12:43:08;13.60;1.40
2174;DHT22;1093;51.424;11.764;2023-10-31T12:45:35;13.60;1.40
2174;DHT22;1093;51.424;11.764;2023-10-31T12:48:03;13.60;1.40
2174;DHT22;1093;51.424;11.764;2023-10-31T12:50:31;13.60;1.40
2174;DHT22;1093;51.424;11.764;2023-10-31T12:53:00;13.60;1.40
2174;DHT22;1093;51.424;11.764;2023-10-31T12:55:30;13.60;1.40
2174;DHT22;1093;51.424;11.764;2023-10-31T12:57:57;13.50;1.40
2174;DHT22;1093;51.424;11.764;2023-10-31T13:00:31;13.50;1.40
2174;DHT22;1093;51.424;11.764;2023-10-31T13:03:01;13.50;1.40
2174;DHT22;1093;51.424;11.764;2023-10-31T13:05:30;13.50;1.40
2174;DHT22;1093;51.424;11.764;2023-10-31T13:07:59;13.50;1.40
2174;DHT22;1093;51.424;11.764;2023-10-31T13:10:30;13.50;1.40
2174;DHT22;1093;51.424;11.764;2023-10-31T13:12:58;13.40;1.40
2174;DHT22;1093;51.424;11.764;2023-10-31T13:15:25;13.40;1.40
2174;DHT22;1093;51.424;11.764;2023-10-31T13:17:53;13.40;1.40
2174;DHT22;1093;51.424;11.764;2023-10-31T13:20:21;13.40;1.40
2174;DHT22;1093;51.424;11.764;2023-10-31T13:22:48;13.50;1.40
2174;DHT22;1093;51.424;11.764;2023-10-31T13:25:16;13.50;1.40
2174;DHT22;1093;51.424;11.764;2023-10-31T13:27:44;13.50;1.40
2174;DHT22;1093;51.424;11.764;2023-10-31T13:30:16;13.40;1.40
2174;DHT22;1093;51.424;11.764;2023-10-31T13:32:44;13.40;1.40
2174;DHT22;1093;51.424;11.764;2023-10-31T13:35:12;13.40;1.40
2174;DHT22;1093;51.424;11.764;2023-10-31T13:37:40;13.50;1.40
2174;DHT22;1093;51.424;11.764;2023-10-31T13:40:07;13.60;1.40
2174;DHT22;1093;51.424;11.764;2023-10-31T13:42:36;13.60;1.40
2174;DHT22;1093;51.424;11.764;2023-10-31T13:45:03;13.60;1.40
2174;DHT22;1093;51.424;11.764;2023-10-31T13:47:30;13.60;1.40
2174;DHT22;1093;51.424;11.764;2023-10-31T13:49:58;13.60;1.40
2174;DHT22;1093;51.424;11.764;2023-10-31T13:52:25;13.70;1.40
2174;DHT22;1093;51.424;11.764;2023-10-31T13:54:52;13.70;1.40
2174;DHT22;1093;51.424;11.764;2023-10-31T13:57:19;13.70;1.40
2174;DHT22;1093;51.424;11.764;2023-10-31T13:59:47;13.70;1.40
2174;DHT22;1093;51.424;11.764;2023-10-31T14:02:14;13.70;1.40
2174;DHT22;1093;51.424;11.764;2023-10-31T14:04:42;13.70;1.40
2174;DHT22;1093;51.424;11.764;2023-10-31T14:07:11;13.60;1.40
2174;DHT22;1093;51.424;11.764;2023-10-31T14:09:40;13.60;1.40
2174;DHT22;1093;51.424;11.764;2023-10-31T14:12:07;13.60;1.40
2174;DHT22;1093;51.424;11.764;2023-10-31T14:14:34;13.60;1.40
2174;DHT22;1093;51.424;11.764;2023-10-31T14:17:02;13.60;1.40
2174;DHT22;1093;51.424;11.764;2023-10-31T14:19:30;13.50;1.40
2174;DHT22;1093;51.424;11.764;2023-10-31T14:21:57;13.40;1.40
2174;DHT22;1093;51.424;11.764;2023-10-31T14:24:24;13.50;1.40
2174;DHT22;1093;51.424;11.764;2023-10-31T14:26:51;13.50;1.40
2174;DHT22;1093;51.424;11.764;2023-10-31T14:29:18;13.40;1.40
2174;DHT22;1093;51.424;11.764;2023-10-31T14:31:45;13.50;1.40
2174;DHT22;1093;51.424;11.764;2023-10-31T14:34:14;13.40;1.40
2174;DHT22;1093;51.424;11.764;2023-10-31T14:36:40;13.40;1.40
2174;DHT22;1093;51.424;11.764;2023-10-31T14:39:08;13.40;1.40
2174;DHT22;1093;51.424;11.764;2023-10-31T14:41:37;13.40;1.40
2174;DHT22;1093;51.424;11.764;2023-10-31T14:44:04;13.30;1.40
2174;DHT22;1093;51.424;11.764;2023-10-31T14:46:31;13.30;1.40
2174;DHT22;1093;51.424;11.764;2023-10-31T14:48:58;13.30;1.40
2174;DHT22;1093;51.424;11.764;2023-10-31T14:51:28;13.20;1.40
2174;DHT22;1093;51.424;11.764;2023-10-31T14:53:58;13.20;1.40
2174;DHT22;1093;51.424;11.764;2023-10-31T14:56:25;13.20;1.40
2174;DHT22;1093;51.424;11.764;2023-10-31T14:58:55;13.20;1.40
2174;DHT22;1093;51.424;11.764;2023-10-31T15:01:22;13.20;1.40
2174;DHT22;1093;51.424;11.764;2023-10-31T15:03:49;13.20;1.40
2174;DHT22;1093;51.424;11.764;2023-10-31T15:06:18;13.20;1.40
2174;DHT22;1093;51.424;11.764;2023-10-31T15:08:46;13.10;1.40
2174;DHT22;1093;51.424;11.764;2023-10-31T15:11:13;13.10;1.40
2174;DHT22;1093;51.424;11.764;2023-10-31T15:13:41;13.10;1.40
2174;DHT22;1093;51.424;11.764;2023-10-31T15:16:08;13.10;1.40
2174;DHT22;1093;51.424;11.764;2023-10-31T15:18:35;13.10;1.40
2174;DHT22;1093;51.424;11.764;2023-10-31T15:21:02;13.00;1.40
2174;DHT22;1093;51.424;11.764;2023-10-31T15:23:29;13.00;1.40
2174;DHT22;1093;51.424;11.764;2023-10-31T15:25:58;13.00;1.40
2174;DHT22;1093;51.424;11.764;2023-10-31T15:28:26;13.00;1.40
2174;DHT22;1093;51.424;11.764;2023-10-31T15:30:54;13.00;1.40
2174;DHT22;1093;51.424;11.764;2023-10-31T15:33:21;13.00;1.40
2174;DHT22;1093;51.424;11.764;2023-10-31T15:35:48;13.00;1.40
2174;DHT22;1093;51.424;11.764;2023-10-31T15:38:15;12.90;1.40
2174;DHT22;1093;51.424;11.764;2023-10-31T15:40:42;12.90;1.40
2174;DHT22;1093;51.424;11.764;2023-10-31T15:43:10;12.90;1.40
2174;DHT22;1093;51.424;11.764;2023-10-31T15:45:36;12.90;1.40
2174;DHT22;1093;51.424;11.764;2023-10-31T15:48:05;12.90;1.40
2174;DHT22;1093;51.424;11.764;2023-10-31T15:50:33;12.90;1.40
2174;DHT22;1093;51.424;11.764;2023-10-31T15:53:00;12.90;1.40
2174;DHT22;1093;51.424;11.764;2023-10-31T15:55:27;12.90;1.40
2174;DHT22;1093;51.424;11.764;2023-10-31T15:57:55;12.90;1.40
2174;DHT22;1093;51.424;11.764;2023-10-31T16:00:24;12.90;1.40
2174;DHT22;1093;51.424;11.764;2023-10-31T16:02:52;12.90;1.40
2174;DHT22;1093;51.424;11.764;2023-10-31T16:05:19;12.90;1.40